Time;durP1;ratioP1;P1;durP2;ratioP2;P2;SDS_P1;SDS_P2;PMS_P1;PMS_P2;Temp;Humidity;BMP_temperature;BMP_pressure;BME280_temperature;BME280_humidity;BME280_pressure;Samples;Min_cycle;Max_cycle;Signal;HPM_P1;HPM_P2
2022/09/13 00:01:25;;;;;;;18.42;12.68;;;;;;;18.95;80.95;100963.13;5000798;28;20046;-72
2022/09/13 00:03:51;;;;;;;11.52;8.50;;;;;;;19.08;77.86;100952.75;5001796;28;20122;-71
2022/09/13 00:06:18;;;;;;;11.63;8.27;;;;;;;19.04;77.76;100963.38;5000005;28;20095;-72
2022/09/13 00:08:44;;;;;;;11.13;8.20;;;;;;;19.08;77.02;100961.25;5001453;28;20489;-72
2022/09/13 00:11:21;;;;;;;13.48;9.23;;;;;;;19.09;78.04;100968.53;4997256;28;20034;-72
2022/09/13 00:13:46;;;;;;;16.05;11.07;;;;;;;18.78;81.43;100980.03;4999046;28;20034;-71
2022/09/13 00:16:15;;;;;;;20.95;14.48;;;;;;;18.72;86.83;100981.75;4999400;28;20037;-72
2022/09/13 00:18:41;;;;;;;17.10;11.68;;;;;;;18.83;85.02;100984.41;5001561;28;20095;-73
2022/09/13 00:21:09;;;;;;;15.90;8.88;;;;;;;18.94;82.05;100978.53;4999987;28;20038;-72
2022/09/13 00:23:36;;;;;;;16.70;11.88;;;;;;;18.93;81.53;100976.94;4998548;28;20037;-72
2022/09/13 00:26:22;;;;;;;22.10;14.75;;;;;;;18.82;86.93;100972.25;4995492;28;20038;-71
2022/09/13 00:28:50;;;;;;;16.88;10.88;;;;;;;18.97;80.18;100963.47;5002341;28;20053;-73
2022/09/13 00:31:15;;;;;;;19.67;13.60;;;;;;;18.95;83.19;100957.44;4998499;28;20029;-73
2022/09/13 00:33:41;;;;;;;23.48;12.82;;;;;;;18.96;82.64;100964.72;5000150;28;20062;-71
2022/09/13 00:36:09;;;;;;;14.48;10.50;;;;;;;18.96;79.48;100964.72;5001812;28;20037;-71
2022/09/13 00:38:38;;;;;;;25.70;17.20;;;;;;;18.88;82.34;100964.84;5002451;28;20044;-74
2022/09/13 00:41:07;;;;;;;18.27;11.50;;;;;;;18.85;80.68;100964.94;4993684;28;20053;-72
2022/09/13 00:44:09;;;;;;;20.23;13.35;;;;;;;18.88;83.39;100950.66;4995355;28;20113;-72
2022/09/13 00:46:43;;;;;;;19.90;12.20;;;;;;;18.95;81.65;100946.88;4996847;28;20153;-72
2022/09/13 00:49:19;;;;;;;20.75;12.80;;;;;;;18.84;81.54;100949.94;4993199;28;20376;-72
2022/09/13 00:51:51;;;;;;;21.38;13.27;;;;;;;18.89;82.23;100942.97;4994120;28;20045;-73
2022/09/13 00:54:18;;;;;;;18.92;12.50;;;;;;;18.88;81.36;100941.38;4997050;28;20026;-72
2022/09/13 00:56:49;;;;;;;24.90;15.00;;;;;;;18.83;82.90;100934.16;4995497;28;20226;-71
2022/09/13 00:59:20;;;;;;;21.70;13.57;;;;;;;18.88;81.65;100936.50;4993721;28;20458;-72
2022/09/13 01:01:53;;;;;;;21.35;13.43;;;;;;;18.84;81.22;100929.28;4997561;28;20501;-72
2022/09/13 01:04:22;;;;;;;24.58;14.88;;;;;;;18.85;82.15;100931.69;4995162;28;20045;-72
2022/09/13 01:06:50;;;;;;;24.83;14.80;;;;;;;18.77;83.23;100923.72;4999757;28;20501;-71
2022/09/13 01:09:15;;;;;;;24.60;14.68;;;;;;;18.72;82.93;100930.72;4999599;28;20498;-73
2022/09/13 01:12:03;;;;;;;23.10;14.15;;;;;;;18.73;84.08;100928.66;4997049;28;20065;-71
2022/09/13 01:14:31;;;;;;;23.98;14.90;;;;;;;18.76;82.31;100931.41;4996034;28;20032;-73
2022/09/13 01:16:56;;;;;;;23.45;13.98;;;;;;;18.79;81.64;100933.44;5000388;28;20540;-74
2022/09/13 01:19:22;;;;;;;22.35;14.75;;;;;;;18.81;82.89;100935.84;4995326;28;20046;-71
2022/09/13 01:21:59;;;;;;;26.67;16.38;;;;;;;18.72;84.66;100942.06;5000094;28;20037;-74
2022/09/13 01:24:40;;;;;;;27.95;16.27;;;;;;;18.76;82.88;100931.41;4999024;28;20392;-72
2022/09/13 01:27:26;;;;;;;25.77;15.55;;;;;;;18.76;82.73;100928.56;4992624;28;20041;-72
2022/09/13 01:30:17;;;;;;;30.35;16.67;;;;;;;18.64;84.58;100924.34;4998054;28;20038;-72
2022/09/13 01:32:45;;;;;;;26.02;15.55;;;;;;;18.70;83.30;100921.84;4993309;28;20375;-71
2022/09/13 01:35:29;;;;;;;25.83;15.68;;;;;;;18.71;83.01;100926.25;4990932;28;20072;-72
2022/09/13 01:37:57;;;;;;;25.25;15.15;;;;;;;18.72;83.58;100919.38;4993507;28;20143;-74
2022/09/13 01:40:31;;;;;;;27.98;14.73;;;;;;;18.68;84.43;100915.78;4992004;28;20136;-73
2022/09/13 01:43:15;;;;;;;28.90;16.92;;;;;;;18.73;85.33;100911.66;4996104;28;20056;-73
2022/09/13 01:46:00;;;;;;;26.27;15.73;;;;;;;18.67;82.23;100914.97;4996501;28;20120;-73
2022/09/13 01:48:54;;;;;;;30.70;16.35;;;;;;;18.68;82.50;100898.78;4992369;28;20390;-72
2022/09/13 01:52:07;;;;;;;24.65;14.85;;;;;;;18.73;82.78;100898.28;4978308;28;20046;-71
2022/09/13 01:54:46;;;;;;;27.88;15.93;;;;;;;18.70;83.02;100896.31;4995022;28;20632;-72
2022/09/13 01:58:00;;;;;;;29.70;16.92;;;;;;;18.70;82.87;100902.00;4994993;28;20062;-71
2022/09/13 02:00:30;;;;;;;26.30;15.40;;;;;;;18.69;83.71;100895.50;4987292;28;20049;-71
2022/09/13 02:03:09;;;;;;;27.88;15.52;;;;;;;18.71;82.58;100897.91;4986884;28;21646;-73
2022/09/13 02:05:41;;;;;;;25.83;15.20;;;;;;;18.71;83.08;100891.44;4991538;28;20034;-72
2022/09/13 02:08:17;;;;;;;27.88;16.75;;;;;;;18.64;82.54;100903.72;4992517;28;20041;-73
2022/09/13 02:10:52;;;;;;;26.13;15.85;;;;;;;18.64;83.56;100900.88;4990629;28;20053;-75
2022/09/13 02:13:23;;;;;;;28.85;15.45;;;;;;;18.70;82.55;100893.47;4995824;28;20091;-71
2022/09/13 02:15:56;;;;;;;25.50;14.20;;;;;;;18.70;83.39;100902.00;4993194;28;20485;-72
2022/09/13 02:18:28;;;;;;;25.73;14.88;;;;;;;18.68;83.39;100902.41;4994905;28;20056;-72
2022/09/13 02:21:02;;;;;;;26.13;16.67;;;;;;;18.71;83.62;100902.78;4994820;28;20057;-71
2022/09/13 02:23:33;;;;;;;28.75;16.02;;;;;;;18.69;85.15;100900.38;4994748;28;20038;-72
2022/09/13 02:26:01;;;;;;;25.15;14.50;;;;;;;18.67;83.01;100897.16;4988643;28;20488;-70
2022/09/13 02:28:39;;;;;;;24.30;14.05;;;;;;;18.54;84.62;100899.84;4996339;28;20136;-72
2022/09/13 02:31:08;;;;;;;22.05;14.25;;;;;;;18.59;83.78;100901.38;4992542;28;20041;-72
2022/09/13 02:33:41;;;;;;;34.70;20.70;;;;;;;18.46;92.93;100896.31;4994292;28;20326;-72
2022/09/13 02:36:16;;;;;;;26.98;14.93;;;;;;;18.42;87.75;100897.63;4993997;28;20045;-71
2022/09/13 02:38:46;;;;;;;36.03;20.30;;;;;;;18.28;90.52;100884.53;4996183;28;20465;-71
2022/09/13 02:41:27;;;;;;;33.55;19.13;;;;;;;18.46;92.15;100902.00;4990201;28;20022;-72
2022/09/13 02:44:14;;;;;;;37.35;19.67;;;;;;;18.55;90.73;100903.47;4996707;28;20038;-72
2022/09/13 02:47:04;;;;;;;28.63;15.50;;;;;;;18.51;87.00;100895.03;5013420;28;20484;-72
2022/09/13 02:49:56;;;;;;;35.65;18.33;;;;;;;18.49;87.10;100903.97;5000899;28;20048;-72
2022/09/13 02:53:01;;;;;;;25.55;15.00;;;;;;;18.36;91.60;100899.34;4999691;28;20038;-71
2022/09/13 02:55:52;;;;;;;30.20;16.52;;;;;;;18.36;88.34;100905.00;4999000;28;20473;-73
2022/09/13 02:58:20;;;;;;;28.20;15.70;;;;;;;18.42;89.99;100904.09;4994364;28;20065;-73
2022/09/13 03:00:46;;;;;;;34.97;18.92;;;;;;;18.40;90.76;100905.75;5003755;28;20121;-72
2022/09/13 03:03:14;;;;;;;30.13;17.58;;;;;;;18.31;89.50;100897.81;5000730;28;20564;-72
2022/09/13 03:05:40;;;;;;;22.92;14.45;;;;;;;18.46;87.83;100904.03;5001338;28;20069;-73
2022/09/13 03:08:09;;;;;;;21.95;13.90;;;;;;;18.42;90.31;100909.75;4993461;28;20217;-71
2022/09/13 03:10:47;;;;;;;20.13;12.52;;;;;;;18.39;87.92;100904.97;5003807;28;20485;-73
2022/09/13 03:13:36;;;;;;;28.65;16.60;;;;;;;18.39;89.28;100904.16;5005092;28;20388;-73
2022/09/13 03:16:14;;;;;;;18.70;11.43;;;;;;;18.60;83.97;100911.50;4996655;28;20041;-72
2022/09/13 03:18:53;;;;;;;23.33;13.02;;;;;;;18.39;86.96;100910.63;5003597;28;20062;-72
2022/09/13 03:21:52;;;;;;;28.88;15.98;;;;;;;18.40;88.61;100909.38;5000878;28;20041;-71
2022/09/13 03:24:24;;;;;;;31.30;18.48;;;;;;;18.26;90.55;100889.81;4999061;28;20022;-71
2022/09/13 03:27:14;;;;;;;27.73;15.50;;;;;;;18.42;88.85;100897.63;5006601;28;20424;-73
2022/09/13 03:30:07;;;;;;;29.33;15.85;;;;;;;18.44;86.63;100898.78;5005193;28;20038;-72
2022/09/13 03:32:39;;;;;;;;;;;;;;;18.42;93.13;100901.25;4995787;28;20080;-72
2022/09/13 03:35:33;;;;;;;23.17;12.05;;;;;;;18.52;85.44;100896.63;5008433;28;19960;-71
2022/09/13 03:38:13;;;;;;;21.80;12.13;;;;;;;18.59;84.02;100907.03;5004599;28;20037;-72
2022/09/13 03:40:44;;;;;;;37.63;21.38;;;;;;;18.35;94.26;100907.06;5004465;28;20038;-72
2022/09/13 03:43:19;;;;;;;29.50;17.90;;;;;;;18.26;93.40;100904.78;5003084;28;20091;-74
2022/09/13 03:45:51;;;;;;;31.88;17.60;;;;;;;18.42;88.71;100887.06;5007008;28;20637;-72
2022/09/13 03:48:17;;;;;;;24.38;13.55;;;;;;;18.36;88.69;100897.34;5001021;28;20095;-72
2022/09/13 03:50:46;;;;;;;31.15;19.05;;;;;;;18.43;92.37;100888.69;4999959;28;20113;-73
2022/09/13 03:53:15;;;;;;;27.90;16.15;;;;;;;18.42;87.35;100889.91;5001341;28;20026;-72
2022/09/13 03:55:42;;;;;;;32.92;18.15;;;;;;;18.43;87.99;100894.38;4999908;28;20521;-73
2022/09/13 03:58:11;;;;;;;31.17;17.50;;;;;;;18.35;93.05;100890.06;5007736;28;20061;-72
2022/09/13 04:00:37;;;;;;;33.83;17.60;;;;;;;18.36;93.52;100888.84;5000812;28;20025;-72
2022/09/13 04:03:02;;;;;;;31.85;18.35;;;;;;;18.22;93.83;100894.75;5004944;28;20039;-72
2022/09/13 04:05:28;;;;;;;31.30;16.35;;;;;;;18.29;88.01;100892.56;4999997;28;20061;-71
2022/09/13 04:07:53;;;;;;;21.92;12.98;;;;;;;18.46;86.99;100896.31;5000988;28;20036;-71
2022/09/13 04:10:19;;;;;;;26.38;15.27;;;;;;;18.39;86.54;100887.97;4998096;28;20591;-72
2022/09/13 04:12:44;;;;;;;37.88;22.42;;;;;;;18.27;92.48;100902.75;4999817;28;20547;-72
2022/09/13 04:15:10;;;;;;;40.00;19.25;;;;;;;18.27;92.34;100897.06;4998370;28;20030;-73
2022/09/13 04:17:35;;;;;;;30.30;17.48;;;;;;;18.19;92.83;100901.25;5000406;28;20096;-71
2022/09/13 04:20:01;;;;;;;31.50;16.75;;;;;;;18.29;88.98;100900.28;5006158;28;20046;-71
2022/09/13 04:22:26;;;;;;;40.15;21.65;;;;;;;18.28;92.63;100910.81;5005103;28;20040;-73
2022/09/13 04:24:51;;;;;;;41.17;22.33;;;;;;;18.34;91.01;100896.97;4988202;28;20137;-73
2022/09/13 04:27:17;;;;;;;25.05;14.27;;;;;;;18.39;86.34;100902.13;5005007;28;20028;-72
2022/09/13 04:29:42;;;;;;;32.65;18.27;;;;;;;18.39;91.82;100902.13;5001563;28;20438;-72
2022/09/13 04:32:09;;;;;;;28.48;15.85;;;;;;;18.46;87.80;100898.34;5003655;28;20046;-71
2022/09/13 04:34:34;;;;;;;28.13;17.05;;;;;;;18.41;92.05;100913.84;4999130;28;20029;-72
2022/09/13 04:37:00;;;;;;;36.25;18.77;;;;;;;18.40;91.24;100911.41;5006478;28;20036;-72
2022/09/13 04:39:25;;;;;;;44.10;22.60;;;;;;;18.19;95.95;100912.59;5002280;28;20034;-71
2022/09/13 04:41:53;;;;;;;42.38;21.85;;;;;;;18.19;91.03;100913.38;5004399;28;20597;-72
2022/09/13 04:44:20;;;;;;;31.23;17.70;;;;;;;18.35;90.04;100901.38;4994522;28;20462;-71
2022/09/13 04:46:47;;;;;;;35.28;20.05;;;;;;;18.33;91.08;100906.69;4995145;28;20132;-72
2022/09/13 04:49:14;;;;;;;33.00;17.77;;;;;;;18.42;88.47;100904.09;4997783;28;20026;-71
2022/09/13 04:51:39;;;;;;;38.67;20.08;;;;;;;18.12;91.59;100901.38;4994416;28;20095;-71
2022/09/13 04:54:05;;;;;;;34.88;18.50;;;;;;;18.20;92.43;100908.53;5010259;28;20057;-73
2022/09/13 04:56:30;;;;;;;27.83;15.80;;;;;;;18.32;88.03;100913.59;4992836;28;20466;-74
2022/09/13 04:58:55;;;;;;;25.67;14.75;;;;;;;18.35;87.75;100914.75;5001234;28;20026;-72
2022/09/13 05:01:22;;;;;;;31.90;15.30;;;;;;;18.31;90.18;100914.81;5000338;28;20030;-74
2022/09/13 05:03:50;;;;;;;45.53;24.52;;;;;;;18.20;93.93;100917.03;4995790;28;20042;-72
2022/09/13 05:06:16;;;;;;;43.28;23.05;;;;;;;18.08;96.79;100912.75;4995881;28;20034;-73
2022/09/13 05:08:42;;;;;;;32.17;19.02;;;;;;;18.20;89.19;100914.19;4993283;28;20093;-72
2022/09/13 05:11:07;;;;;;;27.42;14.10;;;;;;;18.25;90.62;100917.31;4990006;28;20034;-71
2022/09/13 05:13:33;;;;;;;29.40;15.27;;;;;;;18.24;90.15;100920.63;4995089;28;20034;-71
2022/09/13 05:16:05;;;;;;;37.30;17.27;;;;;;;18.19;96.00;100921.09;4991117;28;20037;-72
2022/09/13 05:18:32;;;;;;;24.90;14.48;;;;;;;18.19;89.33;100921.09;4989839;28;20026;-72
2022/09/13 05:20:59;;;;;;;26.85;15.25;;;;;;;18.20;89.05;100914.19;4988726;28;20045;-74
2022/09/13 05:23:25;;;;;;;34.95;19.85;;;;;;;18.27;89.81;100923.38;4988197;28;20033;-73
2022/09/13 05:25:58;;;;;;;29.25;16.75;;;;;;;18.22;88.44;100918.19;4995108;28;20463;-72
2022/09/13 05:28:26;;;;;;;29.83;16.33;;;;;;;18.33;88.70;100922.88;4987529;28;20049;-74
2022/09/13 05:31:07;;;;;;;37.83;20.95;;;;;;;18.33;93.23;100918.00;4994812;28;20060;-73
2022/09/13 05:33:35;;;;;;;26.45;15.48;;;;;;;18.16;89.82;100919.91;4998227;28;20038;-74
2022/09/13 05:36:00;;;;;;;37.53;18.40;;;;;;;18.21;93.91;100924.28;4992108;28;20045;-73
2022/09/13 05:38:26;;;;;;;31.85;16.05;;;;;;;18.34;87.19;100930.97;4989632;28;20394;-73
2022/09/13 05:40:59;;;;;;;33.55;17.63;;;;;;;18.33;92.74;100929.34;4993414;28;20591;-73
2022/09/13 05:43:26;;;;;;;26.92;17.10;;;;;;;18.35;90.39;100935.38;4994905;28;20034;-73
2022/09/13 05:46:11;;;;;;;26.52;13.88;;;;;;;18.36;87.07;100928.50;4997636;28;20125;-71
2022/09/13 05:48:36;;;;;;;29.35;16.95;;;;;;;18.25;90.49;100930.69;5001581;28;20076;-72
2022/09/13 05:51:11;;;;;;;35.92;17.95;;;;;;;18.30;90.58;100935.91;4999094;28;20164;-73
2022/09/13 05:53:38;;;;;;;47.80;25.88;;;;;;;18.26;95.93;100946.47;4989073;28;20052;-71
2022/09/13 05:56:05;;;;;;;45.13;22.63;;;;;;;18.26;93.58;100955.78;4990741;28;20088;-75
2022/09/13 05:58:31;;;;;;;35.03;17.50;;;;;;;18.28;92.58;100952.53;5005162;28;20057;-75
2022/09/13 06:00:57;;;;;;;29.25;15.90;;;;;;;18.28;92.31;100964.66;4979800;28;20137;-72
2022/09/13 06:03:23;;;;;;;39.22;19.63;;;;;;;18.39;92.82;100967.31;4984926;28;20524;-73
2022/09/13 06:05:48;;;;;;;68.95;23.02;;;;;;;18.53;92.37;100971.13;4985210;28;20046;-74
2022/09/13 06:08:14;;;;;;;39.88;20.13;;;;;;;18.30;95.39;100969.91;4984736;28;20041;-74
2022/09/13 06:10:39;;;;;;;40.85;19.13;;;;;;;18.29;93.86;100976.78;4968752;28;20041;-73
2022/09/13 06:13:05;;;;;;;42.97;20.65;;;;;;;18.47;96.13;100974.47;4983184;28;20025;-77
2022/09/13 06:15:30;;;;;;;33.47;18.95;;;;;;;18.45;94.32;100979.75;4988327;28;20084;-76
2022/09/13 06:17:56;;;;;;;37.05;16.38;;;;;;;18.44;92.87;100978.13;4991277;28;20053;-75
2022/09/13 06:20:21;;;;;;;33.22;18.45;;;;;;;18.35;99.95;100983.56;4997054;28;20024;-76
2022/09/13 06:22:48;;;;;;;30.23;16.65;;;;;;;18.43;96.91;100981.44;4995186;28;20034;-75
2022/09/13 06:25:13;;;;;;;26.67;14.07;;;;;;;18.49;95.48;100982.53;4990732;28;20037;-75
2022/09/13 06:27:38;;;;;;;27.23;12.73;;;;;;;18.49;90.56;100982.53;4993452;28;20041;-75
2022/09/13 06:30:07;;;;;;;30.00;14.02;;;;;;;18.56;89.23;100971.06;4995416;28;20476;-76
2022/09/13 06:32:32;;;;;;;21.42;11.95;;;;;;;18.50;89.97;100981.28;4992020;28;20474;-75
2022/09/13 06:34:59;;;;;;;23.85;11.98;;;;;;;18.45;94.15;100987.47;4991309;28;20128;-74
2022/09/13 06:37:24;;;;;;;29.15;11.70;;;;;;;18.46;90.76;100984.19;4993289;28;20366;-74
2022/09/13 06:39:49;;;;;;;19.75;9.57;;;;;;;18.40;96.42;100988.72;4994595;28;20069;-74
2022/09/13 06:42:15;;;;;;;14.65;8.38;;;;;;;18.43;93.46;100985.06;4986748;28;20125;-75
2022/09/13 06:44:40;;;;;;;13.30;7.65;;;;;;;18.34;94.67;100981.97;4993903;28;20053;-75
2022/09/13 06:47:05;;;;;;;14.25;7.43;;;;;;;18.32;95.65;100978.78;4999955;28;20046;-76
2022/09/13 06:49:31;;;;;;;12.10;6.68;;;;;;;18.36;92.76;100984.34;4998132;28;20116;-75
2022/09/13 06:51:56;;;;;;;13.27;6.10;;;;;;;18.35;93.01;100983.56;4994682;28;20293;-75
2022/09/13 06:54:22;;;;;;;12.23;4.80;;;;;;;18.39;95.92;100984.31;4993419;28;20084;-76
2022/09/13 06:56:47;;;;;;;9.98;4.85;;;;;;;18.36;93.52;100992.84;4992767;28;20069;-76
2022/09/13 06:59:13;;;;;;;7.65;4.38;;;;;;;18.44;95.06;100989.47;4997128;28;20045;-76
2022/09/13 07:01:42;;;;;;;9.70;4.68;;;;;;;18.46;91.72;100989.06;5000479;28;20034;-76
2022/09/13 07:04:15;;;;;;;7.05;4.35;;;;;;;18.39;95.11;100995.66;4991623;28;20046;-76
2022/09/13 07:06:46;;;;;;;10.80;4.63;;;;;;;18.37;95.21;100992.44;4982662;28;21618;-75
2022/09/13 07:09:16;;;;;;;5.97;2.90;;;;;;;18.48;94.47;100987.38;4991093;28;20164;-75
2022/09/13 07:11:42;;;;;;;5.82;2.90;;;;;;;18.47;90.17;100990.66;4990646;28;20030;-74
2022/09/13 07:14:07;;;;;;;7.80;3.03;;;;;;;18.41;91.23;100987.50;4996465;28;20454;-75
2022/09/13 07:16:36;;;;;;;5.35;2.20;;;;;;;18.43;94.44;100984.25;4994751;28;20030;-75
2022/09/13 07:19:05;;;;;;;9.52;2.58;;;;;;;18.34;93.35;100989.66;4988900;28;20034;-76
2022/09/13 07:21:32;;;;;;;6.20;2.85;;;;;;;18.37;91.21;100989.59;4998170;28;20045;-73
2022/09/13 07:23:57;;;;;;;4.75;2.45;;;;;;;18.27;96.07;100990.56;4996169;28;20065;-75
2022/09/13 07:26:26;;;;;;;4.05;2.03;;;;;;;18.48;89.36;100993.06;4988500;28;20529;-75
2022/09/13 07:28:53;;;;;;;6.93;2.42;;;;;;;18.62;92.49;100982.72;4995312;28;20041;-75
2022/09/13 07:31:21;;;;;;;4.65;2.25;;;;;;;18.51;92.30;100984.94;4995999;28;20394;-74
2022/09/13 07:33:52;;;;;;;3.80;2.40;;;;;;;18.59;91.35;100978.69;4997338;28;20108;-75
2022/09/13 07:36:17;;;;;;;8.75;3.05;;;;;;;18.50;93.06;100978.47;5001986;28;20135;-75
2022/09/13 07:38:47;;;;;;;4.70;2.70;;;;;;;18.59;95.62;100980.75;4986928;28;20052;-75
2022/09/13 07:41:14;;;;;;;9.15;3.53;;;;;;;18.55;96.05;100989.31;4992154;28;20393;-76
2022/09/13 07:43:40;;;;;;;3.70;2.25;;;;;;;18.57;88.56;100989.66;4986951;28;20381;-74
2022/09/13 07:46:07;;;;;;;6.10;3.13;;;;;;;18.69;91.37;100991.09;4992305;28;20069;-75
2022/09/13 07:48:35;;;;;;;3.65;2.65;;;;;;;18.69;90.25;100988.25;4991940;28;21315;-74
2022/09/13 07:51:03;;;;;;;9.38;2.75;;;;;;;18.76;92.83;100996.63;4994547;28;20513;-74
2022/09/13 07:53:30;;;;;;;4.82;2.45;;;;;;;18.72;90.59;100995.91;4982133;28;20041;-74
2022/09/13 07:56:13;;;;;;;5.35;2.33;;;;;;;18.73;88.26;101003.19;4986855;28;20048;-74
2022/09/13 07:58:40;;;;;;;4.38;2.20;;;;;;;18.76;89.59;100999.47;4988667;28;20050;-74
2022/09/13 08:01:14;;;;;;;8.13;2.40;;;;;;;18.85;90.98;100998.97;5004162;28;20393;-74
2022/09/13 08:03:40;;;;;;;3.63;1.67;;;;;;;19.11;87.88;100994.41;4982266;28;20116;-74
2022/09/13 08:06:06;;;;;;;4.68;2.45;;;;;;;19.15;89.03;100998.00;4992664;28;20042;-73
2022/09/13 08:08:33;;;;;;;4.65;2.38;;;;;;;18.96;90.07;101001.59;4991311;28;20030;-75
2022/09/13 08:11:00;;;;;;;2.80;1.60;;;;;;;18.99;86.53;101003.56;4994772;28;20687;-75
2022/09/13 08:13:26;;;;;;;7.85;3.58;;;;;;;19.08;89.45;101003.81;5010326;28;20026;-72
2022/09/13 08:15:51;;;;;;;9.02;2.45;;;;;;;19.02;90.67;101011.22;5000452;28;20121;-72
2022/09/13 08:18:17;;;;;;;3.88;1.70;;;;;;;19.07;89.47;101008.66;4996322;28;20034;-73
2022/09/13 08:20:43;;;;;;;8.75;2.92;;;;;;;19.01;90.93;101018.91;5000560;28;20711;-72
2022/09/13 08:23:10;;;;;;;5.03;2.20;;;;;;;19.06;87.01;101026.94;4999554;28;20530;-72
2022/09/13 08:25:37;;;;;;;9.13;2.50;;;;;;;19.14;90.28;101026.78;4997923;28;20041;-75
2022/09/13 08:28:14;;;;;;;4.80;1.50;;;;;;;19.20;90.06;101031.53;4996805;28;20057;-75
2022/09/13 08:30:42;;;;;;;10.57;2.38;;;;;;;19.23;90.02;101033.50;4998655;28;20049;-74
2022/09/13 08:33:08;;;;;;;4.22;1.95;;;;;;;19.22;89.44;101033.94;4999330;28;20018;-74
2022/09/13 08:35:34;;;;;;;4.00;1.33;;;;;;;19.23;85.30;101036.34;4996547;28;20061;-72
2022/09/13 08:38:00;;;;;;;3.17;1.52;;;;;;;19.24;88.47;101043.63;4999328;28;20033;-72
2022/09/13 08:40:33;;;;;;;3.72;1.73;;;;;;;19.21;88.53;101047.34;5003339;28;20030;-72
2022/09/13 08:43:16;;;;;;;3.72;2.03;;;;;;;19.20;85.42;101042.88;4996876;28;20032;-75
2022/09/13 08:45:41;;;;;;;3.47;1.85;;;;;;;19.20;88.26;101028.69;4997936;28;20136;-72
2022/09/13 08:48:15;;;;;;;3.38;1.60;;;;;;;19.24;85.83;101031.47;4998555;28;20445;-73
2022/09/13 08:50:43;;;;;;;5.38;1.90;;;;;;;19.29;88.32;101028.94;5000276;28;20680;-75
2022/09/13 08:53:28;;;;;;;6.30;2.00;;;;;;;19.42;87.22;101031.13;4989659;28;20563;-71
2022/09/13 08:56:10;;;;;;;4.57;1.88;;;;;;;19.53;86.65;101030.94;4989692;28;20037;-73
2022/09/13 08:58:48;;;;;;;7.88;2.10;;;;;;;19.55;87.55;101029.25;5009404;28;20037;-72
2022/09/13 09:01:44;;;;;;;6.72;2.20;;;;;;;19.65;88.45;101022.53;4996306;28;20041;-73
2022/09/13 09:04:25;;;;;;;4.47;2.15;;;;;;;19.62;85.83;101011.25;4998212;28;20532;-73
2022/09/13 09:07:09;;;;;;;9.60;2.35;;;;;;;19.60;84.74;101020.19;4995903;28;20044;-73
2022/09/13 09:09:41;;;;;;;3.40;2.08;;;;;;;19.56;86.60;101013.78;4998624;28;20033;-72
2022/09/13 09:12:21;;;;;;;7.05;2.55;;;;;;;19.57;86.47;101015.41;4991075;28;20048;-75
2022/09/13 09:14:59;;;;;;;5.22;2.08;;;;;;;20.02;83.82;101011.22;4996523;28;20481;-72
2022/09/13 09:17:43;;;;;;;5.68;1.55;;;;;;;20.09;81.68;101009.03;4997723;28;20493;-73
2022/09/13 09:20:31;;;;;;;6.75;2.40;;;;;;;20.27;81.89;101007.81;5001956;28;20045;-72
2022/09/13 09:23:01;;;;;;;4.93;1.80;;;;;;;20.58;80.94;101013.22;4995070;28;20027;-72
2022/09/13 09:25:26;;;;;;;4.95;2.33;;;;;;;20.33;81.70;101020.25;4997556;28;20042;-72
2022/09/13 09:27:53;;;;;;;7.20;2.47;;;;;;;20.17;82.96;101029.56;4993598;28;20037;-72
2022/09/13 09:30:19;;;;;;;9.63;2.67;;;;;;;19.82;83.78;101025.47;4996226;28;20041;-72
2022/09/13 09:32:48;;;;;;;7.60;2.42;;;;;;;19.64;84.41;101032.28;4997161;28;20061;-72
2022/09/13 09:35:26;;;;;;;7.55;2.50;;;;;;;19.62;84.06;101033.97;4996614;28;20406;-72
2022/09/13 09:38:07;;;;;;;4.57;1.65;;;;;;;;;;4998068;28;20071;-72
2022/09/13 09:40:37;;;;;;;6.45;1.67;;;;;;;19.70;81.63;101033.41;4996849;28;20037;-73
2022/09/13 09:43:14;;;;;;;9.20;2.20;;;;;;;19.68;81.48;101024.50;4994970;28;20041;-72
2022/09/13 09:45:41;;;;;;;3.50;1.65;;;;;;;19.72;81.54;101026.50;4993940;28;20371;-73
2022/09/13 09:48:14;;;;;;;8.30;1.70;;;;;;;19.76;81.80;101013.03;4995254;28;20092;-72
2022/09/13 09:50:44;;;;;;;;;;;;;;;19.90;80.77;101015.53;4997250;28;20485;-73
2022/09/13 09:53:17;;;;;;;4.45;1.83;;;;;;;20.05;80.92;101016.06;4995997;28;20466;-72
2022/09/13 09:55:59;;;;;;;8.38;1.90;;;;;;;20.02;78.49;101014.88;4994443;28;20038;-73
2022/09/13 09:58:39;;;;;;;7.18;1.45;;;;;;;19.98;78.36;101017.00;4998178;28;20559;-73
2022/09/13 10:01:14;;;;;;;5.78;1.60;;;;;;;20.11;78.14;101014.25;4995543;28;20083;-72
2022/09/13 10:03:39;;;;;;;5.55;1.60;;;;;;;20.25;76.52;101013.13;4996027;28;20823;-73
2022/09/13 10:06:17;;;;;;;3.88;1.45;;;;;;;20.08;79.83;101021.63;4999920;28;20029;-72
2022/09/13 10:08:47;;;;;;;3.90;1.73;;;;;;;20.07;78.57;101020.03;4991787;28;20336;-73
2022/09/13 10:11:12;;;;;;;6.40;1.60;;;;;;;20.17;78.81;101028.75;4993280;28;20041;-72
2022/09/13 10:13:37;;;;;;;7.10;1.65;;;;;;;20.23;79.89;101027.78;4992307;28;20393;-73
2022/09/13 10:16:22;;;;;;;8.27;1.83;;;;;;;20.36;77.75;101027.88;4994618;28;20040;-72
2022/09/13 10:18:47;;;;;;;7.68;1.60;;;;;;;20.47;75.38;101024.78;4992059;28;20040;-72
2022/09/13 10:21:18;;;;;;;6.13;1.80;;;;;;;20.52;74.78;101027.91;4989655;28;20034;-72
2022/09/13 10:23:46;;;;;;;5.40;1.73;;;;;;;20.71;74.90;101022.63;5000040;28;20026;-73
2022/09/13 10:26:18;;;;;;;8.73;2.00;;;;;;;20.69;74.87;101022.25;4994049;28;20116;-73
2022/09/13 10:28:55;;;;;;;5.47;1.80;;;;;;;20.57;76.61;101025.78;5002187;28;20021;-72
2022/09/13 10:31:28;;;;;;;3.92;2.42;;;;;;;20.43;76.16;101021.25;4997454;28;20038;-73
2022/09/13 10:33:58;;;;;;;7.53;1.65;;;;;;;20.57;75.84;101017.25;5000131;28;20030;-73
2022/09/13 10:36:28;;;;;;;3.58;1.30;;;;;;;20.55;74.18;101019.75;4989217;28;20063;-74
2022/09/13 10:39:16;;;;;;;3.80;1.30;;;;;;;20.49;74.24;101028.81;4998434;28;21450;-73
2022/09/13 10:41:50;;;;;;;4.10;1.60;;;;;;;20.58;75.24;101027.44;5000307;28;20086;-72
2022/09/13 10:44:39;;;;;;;7.72;1.50;;;;;;;20.55;72.86;101019.75;5002734;28;20084;-71
2022/09/13 10:47:18;;;;;;;3.00;1.20;;;;;;;20.47;75.29;101019.94;4995381;28;20026;-72
2022/09/13 10:49:53;;;;;;;6.32;1.80;;;;;;;20.36;73.05;101024.25;5003342;28;20077;-73
2022/09/13 10:52:46;;;;;;;2.80;1.35;;;;;;;20.41;74.22;101021.69;4997330;28;20397;-73
2022/09/13 10:55:17;;;;;;;3.60;1.50;;;;;;;20.59;75.56;101026.16;4998633;28;20080;-71
2022/09/13 10:57:44;;;;;;;4.25;1.58;;;;;;;20.51;72.86;101016.97;4998561;28;20049;-74
2022/09/13 11:00:12;;;;;;;5.18;1.33;;;;;;;20.52;77.52;101027.13;4991669;28;20445;-72
2022/09/13 11:03:07;;;;;;;2.45;1.50;;;;;;;20.55;73.22;101025.44;4996621;28;20049;-71
2022/09/13 11:05:46;;;;;;;3.75;1.77;;;;;;;20.68;73.16;101032.03;4994110;28;20037;-71
2022/09/13 11:08:20;;;;;;;7.60;1.70;;;;;;;20.40;71.12;101034.28;4992975;28;20481;-72
2022/09/13 11:11:00;;;;;;;5.32;1.60;;;;;;;20.54;76.24;101032.38;4994117;28;20033;-71
2022/09/13 11:14:01;;;;;;;3.85;1.67;;;;;;;20.60;72.68;101025.72;4991024;28;20026;-71
2022/09/13 11:17:04;;;;;;;2.95;1.13;;;;;;;20.55;70.31;101036.78;4992448;28;20489;-73
2022/09/13 11:20:07;;;;;;;5.03;1.70;;;;;;;20.74;69.54;101033.09;4991993;28;20022;-73
2022/09/13 11:22:48;;;;;;;;;;;;;;;20.78;73.56;101027.31;4987692;28;20034;-71
2022/09/13 11:25:25;;;;;;;6.88;2.35;;;;;;;20.78;71.92;101036.66;4990940;28;19917;-72
2022/09/13 11:28:04;;;;;;;6.32;1.83;;;;;;;20.75;68.04;101031.06;4994025;28;20042;-72
2022/09/13 11:30:50;;;;;;;4.05;1.70;;;;;;;20.64;71.85;101031.31;4994135;28;20026;-73
2022/09/13 11:33:36;;;;;;;2.88;1.42;;;;;;;20.82;70.17;101025.97;4984396;28;20049;-73
2022/09/13 11:36:32;;;;;;;6.28;1.45;;;;;;;21.04;68.59;101028.25;4995496;28;20041;-72
2022/09/13 11:39:22;;;;;;;5.53;2.58;;;;;;;21.37;67.54;101028.97;5000426;28;20424;-71
2022/09/13 11:41:48;;;;;;;1.85;1.17;;;;;;;21.48;67.05;101023.00;4997807;28;20050;-72